Thomson Majesty — 9HA2188 — position and weather

sailwx.info

Track history (hours):
 
Tides and Currents Weather Stations Pressure Air Temp Water Temp Dewpoint Dewpoint Depression Visibility Wind Speed Wind Dir Waves Ship Positions

Thomson Majesty

Last reported at 2016-Aug-27 23:33 UTC. Time now 2016-Aug-28 00:20 UTC.
Position N 42°49' E 006°39'.

Length 207 m; draft 6.2 m.

Type: Ship. MMSI: 248124000.

Date/timePositionNaut miles runAvg speedWind from/ knotsBaromVisibWave heightAir tempDewpointWater temp
2016-Aug-27 23:33N 42°49' E 006°39'1212.3
2016-Aug-27 22:33N 42°48' E 006°55'1212.1
2016-Aug-27 21:33N 42°46' E 007°12'1212.2
2016-Aug-27 20:33N 42°45' E 007°29'1212.2
2016-Aug-27 19:33N 42°44' E 007°45'1212.4
2016-Aug-27 18:33N 42°42' E 008°01'1312.8
2016-Aug-27 17:33N 42°39' E 008°18'1615.5
2016-Aug-27 16:33N 42°37' E 008°39'6 5.9
2016-Aug-27 15:33N 42°34' E 008°46'0 0.1
2016-Aug-27 14:33N 42°34' E 008°46'0 0.0
2016-Aug-27 13:33N 42°34' E 008°46'0 0.0
2016-Aug-27 12:30N 42°34' E 008°46'0 0.0
2016-Aug-27 11:33N 42°34' E 008°46'0 0.1
2016-Aug-27 10:33N 42°34' E 008°46'0 0.1
2016-Aug-27 09:33N 42°34' E 008°46'0 0.0
2016-Aug-27 08:33N 42°34' E 008°46'0 0.1
2016-Aug-27 07:33N 42°34' E 008°46'0 0.0
2016-Aug-27 06:30N 42°34' E 008°46'0 0.1
2016-Aug-27 04:33N 42°34' E 008°46'1010.0
2016-Aug-27 03:33N 42°43' E 008°51'10 9.7
2016-Aug-27 02:33N 42°53' E 008°56'10 9.4
2016-Aug-27 01:31N 43°02' E 008°60'9 9.3
2016-Aug-27 00:34N 43°10' E 009°05'1010.2
2016-Aug-26 23:33N 43°17' E 009°16'1010.1
2016-Aug-26 22:34N 43°24' E 009°26'1010.1
2016-Aug-26 21:34N 43°30' E 009°36'1010.1
2016-Aug-26 20:33N 43°31' E 009°50'10 9.6
2016-Aug-26 19:33N 43°31' E 010°03'9 9.4
2016-Aug-26 18:33N 43°32' E 010°16'2 1.5
2016-Aug-26 17:32N 43°33' E 010°18'0 0.0
2016-Aug-26 16:29N 43°33' E 010°18'0 0.0
2016-Aug-26 15:32N 43°33' E 010°18'0 0.0
2016-Aug-26 14:32N 43°33' E 010°18'0 0.0
2016-Aug-26 13:32N 43°33' E 010°18'0 0.0
2016-Aug-26 12:32N 43°33' E 010°18'0 0.0
2016-Aug-26 11:32N 43°33' E 010°18'0 0.0
2016-Aug-26 10:32N 43°33' E 010°18'0 0.0
2016-Aug-26 09:32N 43°33' E 010°18'0 0.0
2016-Aug-26 08:32N 43°33' E 010°18'0 0.0
2016-Aug-26 07:32N 43°33' E 010°18'0 0.0
2016-Aug-26 06:32N 43°33' E 010°18'0 0.1
2016-Aug-26 04:33N 43°33' E 010°18'7 7.1
2016-Aug-26 03:34N 43°30' E 010°09'1211.8
2016-Aug-26 02:33N 43°31' E 009°52'1111.2
2016-Aug-26 01:33N 43°32' E 009°37'1111.3
2016-Aug-26 00:33N 43°33' E 009°22'1111.4
2016-Aug-25 23:33N 43°34' E 009°06'1110.9
2016-Aug-25 22:33N 43°34' E 008°51'1110.9
2016-Aug-25 21:33N 43°35' E 008°36'1110.9
2016-Aug-25 20:33N 43°36' E 008°21'1111.0
2016-Aug-25 19:33N 43°37' E 008°06'1111.0
2016-Aug-25 18:33N 43°38' E 007°51'1111.5
2016-Aug-25 17:33N 43°39' E 007°35'1211.5
2016-Aug-25 16:33N 43°41' E 007°19'1 1.2
2016-Aug-25 15:32N 43°42' E 007°19'0 0.0
2016-Aug-25 14:32N 43°42' E 007°19'0 0.0
2016-Aug-25 13:26N 43°42' E 007°19'0 0.0
2016-Aug-25 12:32N 43°42' E 007°19'0 0.0
2016-Aug-25 11:32N 43°42' E 007°19'0 0.0
2016-Aug-25 10:26N 43°42' E 007°19'0 0.0
2016-Aug-25 08:26N 43°42' E 007°19'0 0.0
2016-Aug-25 07:32N 43°42' E 007°19'0 0.0
2016-Aug-25 06:32N 43°42' E 007°19'0 0.0
2016-Aug-25 04:32N 43°42' E 007°19'1 1.0
2016-Aug-25 03:33N 43°41' E 007°19'1312.8
2016-Aug-25 02:33N 43°29' E 007°12'1111.3
2016-Aug-25 01:33N 43°21' E 007°01'1111.2
2016-Aug-25 00:32N 43°12' E 006°51'4511.3
2016-Aug-24 20:33N 42°40' E 006°07'1211.7
2016-Aug-24 19:33N 42°32' E 005°56'1211.6
2016-Aug-24 18:34N 42°24' E 005°44'1212.0
2016-Aug-24 17:34N 42°16' E 005°33'1312.6
2016-Aug-24 16:33N 42°06' E 005°22'1312.6
2016-Aug-24 15:32N 41°57' E 005°10'1212.3
2016-Aug-24 14:33N 41°48' E 004°59'1212.4
2016-Aug-24 13:33N 41°39' E 004°47'1312.7
2016-Aug-24 12:34N 41°30' E 004°35'1312.6
2016-Aug-24 11:34N 41°21' E 004°23'1212.5
2016-Aug-24 10:34N 41°12' E 004°12'2812.7
2016-Aug-24 08:20N 40°52' E 003°45'912.0
2016-Aug-24 07:32N 40°45' E 003°37'1212.3
2016-Aug-24 06:33N 40°37' E 003°26'2512.4
2016-Aug-24 04:33N 40°19' E 003°03'1312.8
2016-Aug-24 03:33N 40°10' E 002°51'1313.1
2016-Aug-24 02:33N 40°00' E 002°39'1212.5
2016-Aug-24 01:33N 39°52' E 002°28'1312.7
2016-Aug-24 00:33N 39°43' E 002°16'1110.4
2016-Aug-23 23:31N 39°32' E 002°12'1212.4
2016-Aug-23 22:33N 39°25' E 002°24'1111.1
2016-Aug-23 21:33N 39°30' E 002°37'3 3.4
2016-Aug-23 20:32N 39°33' E 002°38'0 0.0
2016-Aug-23 19:32N 39°33' E 002°38'0 0.0
2016-Aug-23 18:32N 39°33' E 002°38'0 0.0
2016-Aug-23 17:32N 39°33' E 002°38'0 0.0
2016-Aug-23 16:29N 39°33' E 002°38'0 0.0
2016-Aug-23 15:32N 39°33' E 002°38'0 0.0
2016-Aug-23 14:29N 39°33' E 002°38'0 0.0
2016-Aug-23 13:32N 39°33' E 002°38'0 0.0
2016-Aug-23 12:32N 39°33' E 002°38'0 0.0
2016-Aug-23 11:32N 39°33' E 002°38'0 0.0
2016-Aug-23 10:32N 39°33' E 002°38'0 0.0
2016-Aug-23 09:32N 39°33' E 002°38'0 0.0
2016-Aug-23 08:32N 39°33' E 002°38'0 0.0
2016-Aug-23 07:32N 39°33' E 002°38'0 0.0
2016-Aug-23 06:32N 39°33' E 002°38'0 0.0
2016-Aug-23 05:32N 39°33' E 002°38'0 0.0
2016-Aug-23 04:32N 39°33' E 002°38'0 0.0
2016-Aug-23 03:33N 39°33' E 002°38'9 9.3
2016-Aug-23 02:33N 39°24' E 002°40'1212.0
2016-Aug-23 01:33N 39°13' E 002°46'1410.1
2016-Aug-23 00:13N 39°06' E 003°01'812.0
2016-Aug-22 23:33N 39°10' E 003°09'1211.9
2016-Aug-22 22:33N 39°16' E 003°22'1211.7
2016-Aug-22 21:33N 39°23' E 003°35'1211.8
2016-Aug-22 20:33N 39°29' E 003°48'1211.9
2016-Aug-22 19:33N 39°36' E 004°01'276 6.6
2016-Aug-21 01:34N 41°25' E 009°33'1616.2
2016-Aug-21 00:33N 41°32' E 009°53'1615.7
2016-Aug-20 23:33N 41°39' E 010°12'1212.3
2016-Aug-20 22:33N 41°43' E 010°28'1212.4
2016-Aug-20 21:34N 41°47' E 010°43'1212.3
2016-Aug-20 20:33N 41°52' E 010°58'1212.2
2016-Aug-20 19:33N 41°57' E 011°13'1412.1
2016-Aug-20 18:26N 42°02' E 011°30'1011.1
2016-Aug-20 17:32N 42°06' E 011°43'3 2.6
2016-Aug-20 16:30N 42°06' E 011°46'0 0.0
2016-Aug-20 12:33N 42°06' E 011°46'0 0.0
2016-Aug-20 07:30N 42°06' E 011°46'44 6.2
2016-Aug-20 00:24N 41°24' E 012°03'4017.0
2016-Aug-19 22:04N 40°51' E 012°33'917.1
2016-Aug-19 21:33N 40°44' E 012°40'1616.0
2016-Aug-19 20:33N 40°37' E 012°58'1716.8
2016-Aug-19 19:33N 40°33' E 013°20'1616.3
2016-Aug-19 18:33N 40°32' E 013°41'1615.8
2016-Aug-19 17:33N 40°36' E 014°01'1414.1
2016-Aug-19 16:33N 40°39' E 014°19'3 2.4
2016-Aug-19 15:25N 40°38' E 014°23'0 0.0
2016-Aug-19 14:31N 40°38' E 014°23'0 0.0
2016-Aug-19 12:25N 40°38' E 014°23'0 0.0
2016-Aug-19 11:31N 40°38' E 014°23'0 0.0
2016-Aug-19 10:31N 40°38' E 014°23'0 0.0
2016-Aug-19 09:19N 40°38' E 014°23'0 0.0
2016-Aug-19 08:25N 40°38' E 014°23'0 0.0
2016-Aug-19 07:25N 40°38' E 014°23'0 0.0
2016-Aug-19 06:31N 40°38' E 014°23'0 0.0
2016-Aug-19 05:31N 40°38' E 014°23'0 0.0
2016-Aug-19 04:33N 40°38' E 014°23'6 5.9
2016-Aug-19 03:33N 40°37' E 014°15'1111.3
2016-Aug-19 02:33N 40°29' E 014°05'3313.7
2016-Aug-19 00:07N 39°60' E 013°43'1316.4
2016-Aug-18 23:19N 39°48' E 013°35'1316.2
2016-Aug-18 22:32N 39°37' E 013°27'2316.4
2016-Aug-18 21:07N 39°17' E 013°11'1116.2
2016-Aug-18 20:27N 39°09' E 013°02'1516.4
2016-Aug-18 19:31N 38°55' E 012°55'1616.2
2016-Aug-18 18:34N 38°42' E 012°44'1616.0
2016-Aug-18 17:33N 38°28' E 012°34'1515.2
2016-Aug-18 16:33N 38°14' E 012°26'1313.0
2016-Aug-18 15:33N 38°01' E 012°28'2 1.8
2016-Aug-18 14:25N 38°01' E 012°30'0 0.0
2016-Aug-18 13:25N 38°01' E 012°30'0 0.0
2016-Aug-18 12:28N 38°01' E 012°30'0 0.0
2016-Aug-18 11:28N 38°01' E 012°30'0 0.0
2016-Aug-18 10:25N 38°01' E 012°30'0 0.0
2016-Aug-18 09:31N 38°01' E 012°30'0 0.0
2016-Aug-18 08:31N 38°01' E 012°30'0 0.0
2016-Aug-18 07:31N 38°01' E 012°30'0 0.0
2016-Aug-18 06:33N 38°01' E 012°30'0 0.4
2016-Aug-18 05:33N 38°01' E 012°30'9 9.4
2016-Aug-18 04:33N 38°05' E 012°20'4511.1
2016-Aug-18 00:31N 38°17' E 011°25'  
Track history (hours):
 
Tides and Currents Weather Stations Pressure Air Temp Water Temp Dewpoint Dewpoint Depression Visibility Wind Speed Wind Dir Waves Ship Positions

Thomson Majesty

Last reported at 2016-Aug-27 23:33 UTC. Time now 2016-Aug-28 00:20 UTC.
Position N 42°49' E 006°39'.

Length 207 m; draft 6.2 m.

Type: Ship. MMSI: 248124000.

Date/timePositionNaut miles runAvg speedWind from/ knotsBaromVisibWave heightAir tempDewpointWater temp
2016-Aug-27 23:33N 42°49' E 006°39'1212.3
2016-Aug-27 22:33N 42°48' E 006°55'1212.1
2016-Aug-27 21:33N 42°46' E 007°12'1212.2
2016-Aug-27 20:33N 42°45' E 007°29'1212.2
2016-Aug-27 19:33N 42°44' E 007°45'1212.4
2016-Aug-27 18:33N 42°42' E 008°01'1312.8
2016-Aug-27 17:33N 42°39' E 008°18'1615.5
2016-Aug-27 16:33N 42°37' E 008°39'6 5.9
2016-Aug-27 15:33N 42°34' E 008°46'0 0.1
2016-Aug-27 14:33N 42°34' E 008°46'0 0.0
2016-Aug-27 13:33N 42°34' E 008°46'0 0.0
2016-Aug-27 12:30N 42°34' E 008°46'0 0.0
2016-Aug-27 11:33N 42°34' E 008°46'0 0.1
2016-Aug-27 10:33N 42°34' E 008°46'0 0.1
2016-Aug-27 09:33N 42°34' E 008°46'0 0.0
2016-Aug-27 08:33N 42°34' E 008°46'0 0.1
2016-Aug-27 07:33N 42°34' E 008°46'0 0.0
2016-Aug-27 06:30N 42°34' E 008°46'0 0.1
2016-Aug-27 04:33N 42°34' E 008°46'1010.0
2016-Aug-27 03:33N 42°43' E 008°51'10 9.7
2016-Aug-27 02:33N 42°53' E 008°56'10 9.4
2016-Aug-27 01:31N 43°02' E 008°60'9 9.3
2016-Aug-27 00:34N 43°10' E 009°05'1010.2
2016-Aug-26 23:33N 43°17' E 009°16'1010.1
2016-Aug-26 22:34N 43°24' E 009°26'1010.1
2016-Aug-26 21:34N 43°30' E 009°36'1010.1
2016-Aug-26 20:33N 43°31' E 009°50'10 9.6
2016-Aug-26 19:33N 43°31' E 010°03'9 9.4
2016-Aug-26 18:33N 43°32' E 010°16'2 1.5
2016-Aug-26 17:32N 43°33' E 010°18'0 0.0
2016-Aug-26 16:29N 43°33' E 010°18'0 0.0
2016-Aug-26 15:32N 43°33' E 010°18'0 0.0
2016-Aug-26 14:32N 43°33' E 010°18'0 0.0
2016-Aug-26 13:32N 43°33' E 010°18'0 0.0
2016-Aug-26 12:32N 43°33' E 010°18'0 0.0
2016-Aug-26 11:32N 43°33' E 010°18'0 0.0
2016-Aug-26 10:32N 43°33' E 010°18'0 0.0
2016-Aug-26 09:32N 43°33' E 010°18'0 0.0
2016-Aug-26 08:32N 43°33' E 010°18'0 0.0
2016-Aug-26 07:32N 43°33' E 010°18'0 0.0
2016-Aug-26 06:32N 43°33' E 010°18'0 0.1
2016-Aug-26 04:33N 43°33' E 010°18'7 7.1
2016-Aug-26 03:34N 43°30' E 010°09'1211.8
2016-Aug-26 02:33N 43°31' E 009°52'1111.2
2016-Aug-26 01:33N 43°32' E 009°37'1111.3
2016-Aug-26 00:33N 43°33' E 009°22'1111.4
2016-Aug-25 23:33N 43°34' E 009°06'1110.9
2016-Aug-25 22:33N 43°34' E 008°51'1110.9
2016-Aug-25 21:33N 43°35' E 008°36'1110.9
2016-Aug-25 20:33N 43°36' E 008°21'1111.0
2016-Aug-25 19:33N 43°37' E 008°06'1111.0
2016-Aug-25 18:33N 43°38' E 007°51'1111.5
2016-Aug-25 17:33N 43°39' E 007°35'1211.5
2016-Aug-25 16:33N 43°41' E 007°19'1 1.2
2016-Aug-25 15:32N 43°42' E 007°19'0 0.0
2016-Aug-25 14:32N 43°42' E 007°19'0 0.0
2016-Aug-25 13:26N 43°42' E 007°19'0 0.0
2016-Aug-25 12:32N 43°42' E 007°19'0 0.0
2016-Aug-25 11:32N 43°42' E 007°19'0 0.0
2016-Aug-25 10:26N 43°42' E 007°19'0 0.0
2016-Aug-25 08:26N 43°42' E 007°19'0 0.0
2016-Aug-25 07:32N 43°42' E 007°19'0 0.0
2016-Aug-25 06:32N 43°42' E 007°19'0 0.0
2016-Aug-25 04:32N 43°42' E 007°19'1 1.0
2016-Aug-25 03:33N 43°41' E 007°19'1312.8
2016-Aug-25 02:33N 43°29' E 007°12'1111.3
2016-Aug-25 01:33N 43°21' E 007°01'1111.2
2016-Aug-25 00:32N 43°12' E 006°51'4511.3
2016-Aug-24 20:33N 42°40' E 006°07'1211.7
2016-Aug-24 19:33N 42°32' E 005°56'1211.6
2016-Aug-24 18:34N 42°24' E 005°44'1212.0
2016-Aug-24 17:34N 42°16' E 005°33'1312.6
2016-Aug-24 16:33N 42°06' E 005°22'1312.6
2016-Aug-24 15:32N 41°57' E 005°10'1212.3
2016-Aug-24 14:33N 41°48' E 004°59'1212.4
2016-Aug-24 13:33N 41°39' E 004°47'1312.7
2016-Aug-24 12:34N 41°30' E 004°35'1312.6
2016-Aug-24 11:34N 41°21' E 004°23'1212.5
2016-Aug-24 10:34N 41°12' E 004°12'2812.7
2016-Aug-24 08:20N 40°52' E 003°45'912.0
2016-Aug-24 07:32N 40°45' E 003°37'1212.3
2016-Aug-24 06:33N 40°37' E 003°26'2512.4
2016-Aug-24 04:33N 40°19' E 003°03'1312.8
2016-Aug-24 03:33N 40°10' E 002°51'1313.1
2016-Aug-24 02:33N 40°00' E 002°39'1212.5
2016-Aug-24 01:33N 39°52' E 002°28'1312.7
2016-Aug-24 00:33N 39°43' E 002°16'1110.4
2016-Aug-23 23:31N 39°32' E 002°12'1212.4
2016-Aug-23 22:33N 39°25' E 002°24'1111.1
2016-Aug-23 21:33N 39°30' E 002°37'3 3.4
2016-Aug-23 20:32N 39°33' E 002°38'0 0.0
2016-Aug-23 19:32N 39°33' E 002°38'0 0.0
2016-Aug-23 18:32N 39°33' E 002°38'0 0.0
2016-Aug-23 17:32N 39°33' E 002°38'0 0.0
2016-Aug-23 16:29N 39°33' E 002°38'0 0.0
2016-Aug-23 15:32N 39°33' E 002°38'0 0.0
2016-Aug-23 14:29N 39°33' E 002°38'0 0.0
2016-Aug-23 13:32N 39°33' E 002°38'0 0.0
2016-Aug-23 12:32N 39°33' E 002°38'0 0.0
2016-Aug-23 11:32N 39°33' E 002°38'0 0.0
2016-Aug-23 10:32N 39°33' E 002°38'0 0.0
2016-Aug-23 09:32N 39°33' E 002°38'0 0.0
2016-Aug-23 08:32N 39°33' E 002°38'0 0.0
2016-Aug-23 07:32N 39°33' E 002°38'0 0.0
2016-Aug-23 06:32N 39°33' E 002°38'0 0.0
2016-Aug-23 05:32N 39°33' E 002°38'0 0.0
2016-Aug-23 04:32N 39°33' E 002°38'0 0.0
2016-Aug-23 03:33N 39°33' E 002°38'9 9.3
2016-Aug-23 02:33N 39°24' E 002°40'1212.0
2016-Aug-23 01:33N 39°13' E 002°46'1410.1
2016-Aug-23 00:13N 39°06' E 003°01'812.0
2016-Aug-22 23:33N 39°10' E 003°09'1211.9
2016-Aug-22 22:33N 39°16' E 003°22'1211.7
2016-Aug-22 21:33N 39°23' E 003°35'1211.8
2016-Aug-22 20:33N 39°29' E 003°48'1211.9
2016-Aug-22 19:33N 39°36' E 004°01'276 6.6
2016-Aug-21 01:34N 41°25' E 009°33'1616.2
2016-Aug-21 00:33N 41°32' E 009°53'1615.7
2016-Aug-20 23:33N 41°39' E 010°12'1212.3
2016-Aug-20 22:33N 41°43' E 010°28'1212.4
2016-Aug-20 21:34N 41°47' E 010°43'1212.3
2016-Aug-20 20:33N 41°52' E 010°58'1212.2
2016-Aug-20 19:33N 41°57' E 011°13'1412.1
2016-Aug-20 18:26N 42°02' E 011°30'1011.1
2016-Aug-20 17:32N 42°06' E 011°43'3 2.6
2016-Aug-20 16:30N 42°06' E 011°46'0 0.0
2016-Aug-20 12:33N 42°06' E 011°46'0 0.0
2016-Aug-20 07:30N 42°06' E 011°46'44 6.2
2016-Aug-20 00:24N 41°24' E 012°03'4017.0
2016-Aug-19 22:04N 40°51' E 012°33'917.1
2016-Aug-19 21:33N 40°44' E 012°40'1616.0
2016-Aug-19 20:33N 40°37' E 012°58'1716.8
2016-Aug-19 19:33N 40°33' E 013°20'1616.3
2016-Aug-19 18:33N 40°32' E 013°41'1615.8
2016-Aug-19 17:33N 40°36' E 014°01'1414.1
2016-Aug-19 16:33N 40°39' E 014°19'3 2.4
2016-Aug-19 15:25N 40°38' E 014°23'0 0.0
2016-Aug-19 14:31N 40°38' E 014°23'0 0.0
2016-Aug-19 12:25N 40°38' E 014°23'0 0.0
2016-Aug-19 11:31N 40°38' E 014°23'0 0.0
2016-Aug-19 10:31N 40°38' E 014°23'0 0.0
2016-Aug-19 09:19N 40°38' E 014°23'0 0.0
2016-Aug-19 08:25N 40°38' E 014°23'0 0.0
2016-Aug-19 07:25N 40°38' E 014°23'0 0.0
2016-Aug-19 06:31N 40°38' E 014°23'0 0.0
2016-Aug-19 05:31N 40°38' E 014°23'0 0.0
2016-Aug-19 04:33N 40°38' E 014°23'6 5.9
2016-Aug-19 03:33N 40°37' E 014°15'1111.3
2016-Aug-19 02:33N 40°29' E 014°05'3313.7
2016-Aug-19 00:07N 39°60' E 013°43'1316.4
2016-Aug-18 23:19N 39°48' E 013°35'1316.2
2016-Aug-18 22:32N 39°37' E 013°27'2316.4
2016-Aug-18 21:07N 39°17' E 013°11'1116.2
2016-Aug-18 20:27N 39°09' E 013°02'1516.4
2016-Aug-18 19:31N 38°55' E 012°55'1616.2
2016-Aug-18 18:34N 38°42' E 012°44'1616.0
2016-Aug-18 17:33N 38°28' E 012°34'1515.2
2016-Aug-18 16:33N 38°14' E 012°26'1313.0
2016-Aug-18 15:33N 38°01' E 012°28'2 1.8
2016-Aug-18 14:25N 38°01' E 012°30'0 0.0
2016-Aug-18 13:25N 38°01' E 012°30'0 0.0
2016-Aug-18 12:28N 38°01' E 012°30'0 0.0
2016-Aug-18 11:28N 38°01' E 012°30'0 0.0
2016-Aug-18 10:25N 38°01' E 012°30'0 0.0
2016-Aug-18 09:31N 38°01' E 012°30'0 0.0
2016-Aug-18 08:31N 38°01' E 012°30'0 0.0
2016-Aug-18 07:31N 38°01' E 012°30'0 0.0
2016-Aug-18 06:33N 38°01' E 012°30'0 0.4
2016-Aug-18 05:33N 38°01' E 012°30'9 9.4
2016-Aug-18 04:33N 38°05' E 012°20'4511.1
2016-Aug-18 00:31N 38°17' E 011°25'  

Dump ship's entire track history